sensor_id;sensor_type;location;lat;lon;timestamp;temperature;humidity
23717;DHT22;22094;52.130;5.598;2023-09-12T00:00:41;19.30;1.00
23717;DHT22;22094;52.130;5.598;2023-09-12T00:03:06;19.30;1.00
23717;DHT22;22094;52.130;5.598;2023-09-12T00:05:32;19.30;1.00
23717;DHT22;22094;52.130;5.598;2023-09-12T00:07:58;19.30;1.00
23717;DHT22;22094;52.130;5.598;2023-09-12T00:10:23;19.30;1.00
23717;DHT22;22094;52.130;5.598;2023-09-12T00:12:50;19.30;1.00
23717;DHT22;22094;52.130;5.598;2023-09-12T00:15:15;19.30;1.00
23717;DHT22;22094;52.130;5.598;2023-09-12T00:17:41;19.20;1.00
23717;DHT22;22094;52.130;5.598;2023-09-12T00:20:07;19.10;1.00
23717;DHT22;22094;52.130;5.598;2023-09-12T00:22:33;19.10;1.00
23717;DHT22;22094;52.130;5.598;2023-09-12T00:24:59;19.00;1.00
23717;DHT22;22094;52.130;5.598;2023-09-12T00:27:24;19.00;1.00
23717;DHT22;22094;52.130;5.598;2023-09-12T00:29:50;19.00;1.00
23717;DHT22;22094;52.130;5.598;2023-09-12T00:32:16;18.90;1.00
23717;DHT22;22094;52.130;5.598;2023-09-12T00:34:41;18.90;1.00
23717;DHT22;22094;52.130;5.598;2023-09-12T00:37:07;18.80;1.00
23717;DHT22;22094;52.130;5.598;2023-09-12T00:39:32;18.80;1.00
23717;DHT22;22094;52.130;5.598;2023-09-12T00:41:58;18.70;1.00
23717;DHT22;22094;52.130;5.598;2023-09-12T00:44:24;18.70;1.00
23717;DHT22;22094;52.130;5.598;2023-09-12T00:46:49;18.60;1.00
23717;DHT22;22094;52.130;5.598;2023-09-12T00:49:16;18.60;1.00
23717;DHT22;22094;52.130;5.598;2023-09-12T00:51:43;18.50;1.00
23717;DHT22;22094;52.130;5.598;2023-09-12T00:54:10;18.50;1.00
23717;DHT22;22094;52.130;5.598;2023-09-12T00:56:35;18.50;1.00
23717;DHT22;22094;52.130;5.598;2023-09-12T00:59:02;18.40;1.00
23717;DHT22;22094;52.130;5.598;2023-09-12T01:01:28;18.40;1.00
23717;DHT22;22094;52.130;5.598;2023-09-12T01:03:55;18.30;1.00
23717;DHT22;22094;52.130;5.598;2023-09-12T01:06:23;18.30;1.00
23717;DHT22;22094;52.130;5.598;2023-09-12T01:08:51;18.30;1.00
23717;DHT22;22094;52.130;5.598;2023-09-12T01:11:17;18.20;1.00
23717;DHT22;22094;52.130;5.598;2023-09-12T01:13:43;18.30;1.00
23717;DHT22;22094;52.130;5.598;2023-09-12T01:16:08;18.20;1.00
23717;DHT22;22094;52.130;5.598;2023-09-12T01:18:34;18.20;1.00
23717;DHT22;22094;52.130;5.598;2023-09-12T01:27:17;18.10;1.00
23717;DHT22;22094;52.130;5.598;2023-09-12T01:29:46;18.10;1.00
23717;DHT22;22094;52.130;5.598;2023-09-12T01:32:14;18.00;1.00
23717;DHT22;22094;52.130;5.598;2023-09-12T01:34:40;18.00;1.00
23717;DHT22;22094;52.130;5.598;2023-09-12T01:37:05;17.90;1.00
23717;DHT22;22094;52.130;5.598;2023-09-12T01:39:31;17.90;1.00
23717;DHT22;22094;52.130;5.598;2023-09-12T01:41:58;17.80;1.00
23717;DHT22;22094;52.130;5.598;2023-09-12T01:44:25;17.80;1.00
23717;DHT22;22094;52.130;5.598;2023-09-12T01:46:53;17.80;1.00
23717;DHT22;22094;52.130;5.598;2023-09-12T01:49:21;17.70;1.00
23717;DHT22;22094;52.130;5.598;2023-09-12T01:51:48;17.70;1.00
23717;DHT22;22094;52.130;5.598;2023-09-12T01:54:14;17.60;1.00
23717;DHT22;22094;52.130;5.598;2023-09-12T01:56:40;17.60;1.00
23717;DHT22;22094;52.130;5.598;2023-09-12T01:59:07;17.60;1.00
23717;DHT22;22094;52.130;5.598;2023-09-12T02:01:32;17.60;1.00
23717;DHT22;22094;52.130;5.598;2023-09-12T02:03:58;17.50;1.00
23717;DHT22;22094;52.130;5.598;2023-09-12T02:06:24;17.50;1.00
23717;DHT22;22094;52.130;5.598;2023-09-12T02:08:49;17.50;1.00
23717;DHT22;22094;52.130;5.598;2023-09-12T02:11:15;17.50;1.00
23717;DHT22;22094;52.130;5.598;2023-09-12T02:13:40;17.60;1.00
23717;DHT22;22094;52.130;5.598;2023-09-12T02:16:06;17.50;1.00
23717;DHT22;22094;52.130;5.598;2023-09-12T02:18:32;17.50;1.00
23717;DHT22;22094;52.130;5.598;2023-09-12T02:21:00;17.50;1.00
23717;DHT22;22094;52.130;5.598;2023-09-12T02:23:26;17.50;2.00
23717;DHT22;22094;52.130;5.598;2023-09-12T02:25:51;17.40;2.10
23717;DHT22;22094;52.130;5.598;2023-09-12T02:28:17;17.60;2.50
23717;DHT22;22094;52.130;5.598;2023-09-12T02:30:42;17.40;2.80
23717;DHT22;22094;52.130;5.598;2023-09-12T02:33:08;17.30;2.40
23717;DHT22;22094;52.130;5.598;2023-09-12T02:35:34;17.20;3.20
23717;DHT22;22094;52.130;5.598;2023-09-12T02:37:59;17.30;4.20
23717;DHT22;22094;52.130;5.598;2023-09-12T02:40:25;17.40;8.70
23717;DHT22;22094;52.130;5.598;2023-09-12T02:42:51;17.50;15.90
23717;DHT22;22094;52.130;5.598;2023-09-12T02:45:17;17.60;24.50
23717;DHT22;22094;52.130;5.598;2023-09-12T02:47:42;17.60;28.80
23717;DHT22;22094;52.130;5.598;2023-09-12T02:50:09;17.60;30.60
23717;DHT22;22094;52.130;5.598;2023-09-12T02:52:35;17.70;33.40
23717;DHT22;22094;52.130;5.598;2023-09-12T02:55:00;17.80;39.70
23717;DHT22;22094;52.130;5.598;2023-09-12T02:57:26;17.90;41.50
23717;DHT22;22094;52.130;5.598;2023-09-12T02:59:51;17.80;43.10
23717;DHT22;22094;52.130;5.598;2023-09-12T03:02:17;17.80;44.10
23717;DHT22;22094;52.130;5.598;2023-09-12T03:04:43;17.80;45.40
23717;DHT22;22094;52.130;5.598;2023-09-12T03:07:08;17.80;46.80
23717;DHT22;22094;52.130;5.598;2023-09-12T03:09:34;17.80;47.20
23717;DHT22;22094;52.130;5.598;2023-09-12T03:12:03;17.80;47.50
23717;DHT22;22094;52.130;5.598;2023-09-12T03:14:28;17.80;48.20
23717;DHT22;22094;52.130;5.598;2023-09-12T03:16:54;17.80;48.80
23717;DHT22;22094;52.130;5.598;2023-09-12T03:19:21;17.80;49.60
23717;DHT22;22094;52.130;5.598;2023-09-12T03:21:47;17.80;49.50
23717;DHT22;22094;52.130;5.598;2023-09-12T03:24:12;17.70;49.80
23717;DHT22;22094;52.130;5.598;2023-09-12T03:26:38;17.70;50.20
23717;DHT22;22094;52.130;5.598;2023-09-12T03:29:04;17.90;50.60
23717;DHT22;22094;52.130;5.598;2023-09-12T03:31:30;17.70;50.50
23717;DHT22;22094;52.130;5.598;2023-09-12T03:33:56;17.70;51.20
23717;DHT22;22094;52.130;5.598;2023-09-12T03:36:21;17.70;51.50
23717;DHT22;22094;52.130;5.598;2023-09-12T03:38:47;17.70;51.40
23717;DHT22;22094;52.130;5.598;2023-09-12T03:41:13;17.60;51.30
23717;DHT22;22094;52.130;5.598;2023-09-12T03:43:38;17.60;51.30
23717;DHT22;22094;52.130;5.598;2023-09-12T03:46:07;17.60;51.60
23717;DHT22;22094;52.130;5.598;2023-09-12T03:48:34;17.70;51.70
23717;DHT22;22094;52.130;5.598;2023-09-12T03:51:04;17.60;51.90
23717;DHT22;22094;52.130;5.598;2023-09-12T03:53:30;17.50;52.30
23717;DHT22;22094;52.130;5.598;2023-09-12T03:55:55;17.50;52.70
23717;DHT22;22094;52.130;5.598;2023-09-12T03:58:24;17.50;53.00
23717;DHT22;22094;52.130;5.598;2023-09-12T04:00:50;17.50;53.20
23717;DHT22;22094;52.130;5.598;2023-09-12T04:03:15;17.50;53.20
23717;DHT22;22094;52.130;5.598;2023-09-12T04:05:41;17.50;53.20
23717;DHT22;22094;52.130;5.598;2023-09-12T04:08:07;17.60;53.90
23717;DHT22;22094;52.130;5.598;2023-09-12T04:10:33;17.50;53.20
23717;DHT22;22094;52.130;5.598;2023-09-12T04:12:58;17.50;52.40
23717;DHT22;22094;52.130;5.598;2023-09-12T04:15:24;17.50;52.20
23717;DHT22;22094;52.130;5.598;2023-09-12T04:17:49;17.50;52.00
23717;DHT22;22094;52.130;5.598;2023-09-12T04:20:15;17.50;51.80
23717;DHT22;22094;52.130;5.598;2023-09-12T04:22:44;17.40;50.70
23717;DHT22;22094;52.130;5.598;2023-09-12T04:25:10;17.50;50.50
23717;DHT22;22094;52.130;5.598;2023-09-12T04:27:35;17.50;50.70
23717;DHT22;22094;52.130;5.598;2023-09-12T04:30:01;17.40;50.40
23717;DHT22;22094;52.130;5.598;2023-09-12T04:32:27;17.40;50.10
23717;DHT22;22094;52.130;5.598;2023-09-12T04:34:52;17.40;49.50
23717;DHT22;22094;52.130;5.598;2023-09-12T04:37:18;17.40;51.90
23717;DHT22;22094;52.130;5.598;2023-09-12T04:39:45;17.50;52.60
23717;DHT22;22094;52.130;5.598;2023-09-12T04:42:10;17.50;53.00
23717;DHT22;22094;52.130;5.598;2023-09-12T04:44:38;17.50;52.10
23717;DHT22;22094;52.130;5.598;2023-09-12T04:47:04;17.40;50.00
23717;DHT22;22094;52.130;5.598;2023-09-12T04:49:30;17.40;52.60
23717;DHT22;22094;52.130;5.598;2023-09-12T04:51:55;17.30;51.10
23717;DHT22;22094;52.130;5.598;2023-09-12T04:54:21;17.30;50.70
23717;DHT22;22094;52.130;5.598;2023-09-12T04:56:47;17.20;49.70
23717;DHT22;22094;52.130;5.598;2023-09-12T04:59:12;17.20;49.30
23717;DHT22;22094;52.130;5.598;2023-09-12T05:01:38;17.20;51.80
23717;DHT22;22094;52.130;5.598;2023-09-12T05:04:03;17.20;53.30
23717;DHT22;22094;52.130;5.598;2023-09-12T05:06:29;17.20;54.20
23717;DHT22;22094;52.130;5.598;2023-09-12T05:08:55;17.20;54.50
23717;DHT22;22094;52.130;5.598;2023-09-12T05:11:22;17.20;54.60
23717;DHT22;22094;52.130;5.598;2023-09-12T05:13:49;17.20;54.40
23717;DHT22;22094;52.130;5.598;2023-09-12T05:16:14;17.10;54.80
23717;DHT22;22094;52.130;5.598;2023-09-12T05:18:40;17.10;55.00
23717;DHT22;22094;52.130;5.598;2023-09-12T05:21:06;17.10;55.10
23717;DHT22;22094;52.130;5.598;2023-09-12T05:23:32;17.20;56.10
23717;DHT22;22094;52.130;5.598;2023-09-12T05:25:57;17.20;57.70
23717;DHT22;22094;52.130;5.598;2023-09-12T05:28:23;17.30;61.20
23717;DHT22;22094;52.130;5.598;2023-09-12T05:30:48;17.30;63.60
23717;DHT22;22094;52.130;5.598;2023-09-12T05:33:14;17.40;65.30
23717;DHT22;22094;52.130;5.598;2023-09-12T05:35:40;17.40;66.20
23717;DHT22;22094;52.130;5.598;2023-09-12T05:38:05;17.40;66.80
23717;DHT22;22094;52.130;5.598;2023-09-12T05:40:31;17.40;67.40
23717;DHT22;22094;52.130;5.598;2023-09-12T05:42:56;17.40;67.90
23717;DHT22;22094;52.130;5.598;2023-09-12T05:45:22;17.40;68.60
23717;DHT22;22094;52.130;5.598;2023-09-12T05:47:48;17.40;68.90
23717;DHT22;22094;52.130;5.598;2023-09-12T05:50:16;17.40;69.50
23717;DHT22;22094;52.130;5.598;2023-09-12T05:52:41;17.40;69.60
23717;DHT22;22094;52.130;5.598;2023-09-12T05:55:08;17.40;70.10
23717;DHT22;22094;52.130;5.598;2023-09-12T05:57:34;17.50;70.60
23717;DHT22;22094;52.130;5.598;2023-09-12T05:59:59;17.50;71.30
23717;DHT22;22094;52.130;5.598;2023-09-12T06:02:26;17.60;72.20
23717;DHT22;22094;52.130;5.598;2023-09-12T06:04:52;17.60;73.10
23717;DHT22;22094;52.130;5.598;2023-09-12T06:07:17;17.70;73.90
23717;DHT22;22094;52.130;5.598;2023-09-12T06:09:43;17.80;75.90
23717;DHT22;22094;52.130;5.598;2023-09-12T06:12:09;17.80;75.00
23717;DHT22;22094;52.130;5.598;2023-09-12T06:14:34;17.80;75.20
23717;DHT22;22094;52.130;5.598;2023-09-12T06:17:00;17.90;76.00
23717;DHT22;22094;52.130;5.598;2023-09-12T06:19:25;17.90;74.90
23717;DHT22;22094;52.130;5.598;2023-09-12T06:21:51;18.00;75.80
23717;DHT22;22094;52.130;5.598;2023-09-12T06:24:19;18.00;74.60
23717;DHT22;22094;52.130;5.598;2023-09-12T06:26:46;18.00;65.60
23717;DHT22;22094;52.130;5.598;2023-09-12T06:29:13;18.00;66.30
23717;DHT22;22094;52.130;5.598;2023-09-12T06:31:39;18.10;58.30
23717;DHT22;22094;52.130;5.598;2023-09-12T06:34:07;18.10;53.40
23717;DHT22;22094;52.130;5.598;2023-09-12T06:36:32;18.20;46.00
23717;DHT22;22094;52.130;5.598;2023-09-12T06:38:59;18.30;34.20
23717;DHT22;22094;52.130;5.598;2023-09-12T06:41:26;18.20;26.90
23717;DHT22;22094;52.130;5.598;2023-09-12T06:43:52;18.30;13.00
23717;DHT22;22094;52.130;5.598;2023-09-12T06:46:17;18.30;2.90
23717;DHT22;22094;52.130;5.598;2023-09-12T06:48:46;18.40;1.00
23717;DHT22;22094;52.130;5.598;2023-09-12T06:51:12;18.40;1.00
23717;DHT22;22094;52.130;5.598;2023-09-12T06:53:38;18.30;1.00
23717;DHT22;22094;52.130;5.598;2023-09-12T06:56:04;18.60;1.00
23717;DHT22;22094;52.130;5.598;2023-09-12T06:58:30;18.60;1.00
23717;DHT22;22094;52.130;5.598;2023-09-12T07:01:00;18.50;1.00
23717;DHT22;22094;52.130;5.598;2023-09-12T07:03:26;18.60;1.00
23717;DHT22;22094;52.130;5.598;2023-09-12T07:05:51;18.70;1.00
23717;DHT22;22094;52.130;5.598;2023-09-12T07:08:17;18.80;1.00
23717;DHT22;22094;52.130;5.598;2023-09-12T07:10:46;20.30;1.00
23717;DHT22;22094;52.130;5.598;2023-09-12T07:13:12;21.20;1.00
23717;DHT22;22094;52.130;5.598;2023-09-12T07:15:38;19.10;1.00
23717;DHT22;22094;52.130;5.598;2023-09-12T07:18:05;19.20;1.00
23717;DHT22;22094;52.130;5.598;2023-09-12T07:20:32;19.30;1.00
23717;DHT22;22094;52.130;5.598;2023-09-12T07:22:57;19.00;1.00
23717;DHT22;22094;52.130;5.598;2023-09-12T07:25:23;17.10;1.00
23717;DHT22;22094;52.130;5.598;2023-09-12T07:27:50;19.30;1.00
23717;DHT22;22094;52.130;5.598;2023-09-12T07:30:15;19.40;1.00
23717;DHT22;22094;52.130;5.598;2023-09-12T07:32:41;19.50;1.00
23717;DHT22;22094;52.130;5.598;2023-09-12T07:35:07;19.50;1.00
23717;DHT22;22094;52.130;5.598;2023-09-12T07:37:33;19.50;1.00
23717;DHT22;22094;52.130;5.598;2023-09-12T07:39:58;19.50;1.00
23717;DHT22;22094;52.130;5.598;2023-09-12T07:42:24;19.60;1.00
23717;DHT22;22094;52.130;5.598;2023-09-12T07:44:50;20.80;1.00
23717;DHT22;22094;52.130;5.598;2023-09-12T07:47:17;19.60;1.00
23717;DHT22;22094;52.130;5.598;2023-09-12T07:49:42;19.60;1.00
23717;DHT22;22094;52.130;5.598;2023-09-12T07:52:08;19.50;1.00
23717;DHT22;22094;52.130;5.598;2023-09-12T07:54:33;19.40;1.00
23717;DHT22;22094;52.130;5.598;2023-09-12T07:56:59;19.50;1.00
23717;DHT22;22094;52.130;5.598;2023-09-12T07:59:25;19.60;99.90
23717;DHT22;22094;52.130;5.598;2023-09-12T08:01:50;19.90;99.90
23717;DHT22;22094;52.130;5.598;2023-09-12T08:04:17;19.60;99.90
23717;DHT22;22094;52.130;5.598;2023-09-12T08:06:43;19.80;1.00
23717;DHT22;22094;52.130;5.598;2023-09-12T08:09:09;21.70;1.00
23717;DHT22;22094;52.130;5.598;2023-09-12T08:11:35;20.40;99.90
23717;DHT22;22094;52.130;5.598;2023-09-12T08:14:01;20.40;99.90
23717;DHT22;22094;52.130;5.598;2023-09-12T08:16:27;19.90;1.00
23717;DHT22;22094;52.130;5.598;2023-09-12T08:18:52;22.00;99.90
23717;DHT22;22094;52.130;5.598;2023-09-12T08:21:18;20.80;1.00
23717;DHT22;22094;52.130;5.598;2023-09-12T08:23:43;21.30;99.90
23717;DHT22;22094;52.130;5.598;2023-09-12T08:26:10;20.80;1.00
23717;DHT22;22094;52.130;5.598;2023-09-12T08:31:02;22.80;1.00
23717;DHT22;22094;52.130;5.598;2023-09-12T08:33:27;23.60;99.90
23717;DHT22;22094;52.130;5.598;2023-09-12T08:38:19;21.50;99.90
23717;DHT22;22094;52.130;5.598;2023-09-12T08:40:49;22.30;99.90
23717;DHT22;22094;52.130;5.598;2023-09-12T08:43:16;22.20;99.90
23717;DHT22;22094;52.130;5.598;2023-09-12T08:45:42;21.60;38.90
23717;DHT22;22094;52.130;5.598;2023-09-12T08:48:11;24.40;17.40
23717;DHT22;22094;52.130;5.598;2023-09-12T08:50:37;22.50;72.70
23717;DHT22;22094;52.130;5.598;2023-09-12T08:53:03;22.30;1.00
23717;DHT22;22094;52.130;5.598;2023-09-12T08:55:29;22.40;1.00
23717;DHT22;22094;52.130;5.598;2023-09-12T08:57:57;22.30;1.00
23717;DHT22;22094;52.130;5.598;2023-09-12T09:00:24;24.00;1.00
23717;DHT22;22094;52.130;5.598;2023-09-12T09:02:50;22.60;1.00
23717;DHT22;22094;52.130;5.598;2023-09-12T09:05:17;22.60;1.00
23717;DHT22;22094;52.130;5.598;2023-09-12T09:07:45;22.20;1.00
23717;DHT22;22094;52.130;5.598;2023-09-12T09:10:15;21.10;1.00
23717;DHT22;22094;52.130;5.598;2023-09-12T09:12:42;22.20;1.00
23717;DHT22;22094;52.130;5.598;2023-09-12T09:15:28;23.00;1.00
23717;DHT22;22094;52.130;5.598;2023-09-12T09:17:55;23.70;1.00
23717;DHT22;22094;52.130;5.598;2023-09-12T09:20:32;22.90;1.00
23717;DHT22;22094;52.130;5.598;2023-09-12T09:23:02;23.80;1.00
23717;DHT22;22094;52.130;5.598;2023-09-12T09:27:56;23.80;1.00
23717;DHT22;22094;52.130;5.598;2023-09-12T09:30:39;23.00;1.00
23717;DHT22;22094;52.130;5.598;2023-09-12T09:33:05;23.60;1.00
23717;DHT22;22094;52.130;5.598;2023-09-12T09:35:31;23.40;1.00
23717;DHT22;22094;52.130;5.598;2023-09-12T09:37:57;24.90;1.00
23717;DHT22;22094;52.130;5.598;2023-09-12T09:42:58;23.80;1.00
23717;DHT22;22094;52.130;5.598;2023-09-12T09:45:24;25.10;1.00
23717;DHT22;22094;52.130;5.598;2023-09-12T09:47:50;22.00;1.00
23717;DHT22;22094;52.130;5.598;2023-09-12T09:50:16;25.50;1.00
23717;DHT22;22094;52.130;5.598;2023-09-12T09:52:43;24.50;1.00
23717;DHT22;22094;52.130;5.598;2023-09-12T09:55:19;24.20;1.00
23717;DHT22;22094;52.130;5.598;2023-09-12T09:57:45;24.00;1.00
23717;DHT22;22094;52.130;5.598;2023-09-12T10:02:40;25.70;1.00
23717;DHT22;22094;52.130;5.598;2023-09-12T10:05:09;25.10;1.00
23717;DHT22;22094;52.130;5.598;2023-09-12T10:07:37;26.40;1.00
23717;DHT22;22094;52.130;5.598;2023-09-12T10:12:35;25.50;1.00
23717;DHT22;22094;52.130;5.598;2023-09-12T10:15:02;25.90;1.00
23717;DHT22;22094;52.130;5.598;2023-09-12T10:17:35;25.90;1.00
23717;DHT22;22094;52.130;5.598;2023-09-12T10:20:08;27.30;1.00
23717;DHT22;22094;52.130;5.598;2023-09-12T10:22:42;25.80;1.00
23717;DHT22;22094;52.130;5.598;2023-09-12T10:25:09;25.20;1.00
23717;DHT22;22094;52.130;5.598;2023-09-12T10:27:37;25.40;1.00
23717;DHT22;22094;52.130;5.598;2023-09-12T10:30:04;25.80;1.00
23717;DHT22;22094;52.130;5.598;2023-09-12T10:34:58;24.30;1.00
23717;DHT22;22094;52.130;5.598;2023-09-12T10:37:25;26.80;1.00
23717;DHT22;22094;52.130;5.598;2023-09-12T10:39:53;27.00;1.00
23717;DHT22;22094;52.130;5.598;2023-09-12T10:42:20;25.90;1.00
23717;DHT22;22094;52.130;5.598;2023-09-12T10:44:46;26.20;1.00
23717;DHT22;22094;52.130;5.598;2023-09-12T10:47:13;25.70;1.00
23717;DHT22;22094;52.130;5.598;2023-09-12T10:49:39;27.20;1.00
23717;DHT22;22094;52.130;5.598;2023-09-12T10:52:08;26.70;1.00
23717;DHT22;22094;52.130;5.598;2023-09-12T10:54:38;26.00;1.00
23717;DHT22;22094;52.130;5.598;2023-09-12T10:57:08;25.90;1.00
23717;DHT22;22094;52.130;5.598;2023-09-12T10:59:36;24.80;1.00
23717;DHT22;22094;52.130;5.598;2023-09-12T11:02:31;25.50;1.00
23717;DHT22;22094;52.130;5.598;2023-09-12T11:04:58;26.70;1.00
23717;DHT22;22094;52.130;5.598;2023-09-12T11:12:45;23.70;1.00
23717;DHT22;22094;52.130;5.598;2023-09-12T11:15:11;25.10;1.00
23717;DHT22;22094;52.130;5.598;2023-09-12T11:17:44;24.90;1.00
23717;DHT22;22094;52.130;5.598;2023-09-12T11:20:11;25.90;1.00
23717;DHT22;22094;52.130;5.598;2023-09-12T11:22:41;25.70;1.00
23717;DHT22;22094;52.130;5.598;2023-09-12T11:25:24;25.20;1.00
23717;DHT22;22094;52.130;5.598;2023-09-12T11:30:17;25.80;1.00
23717;DHT22;22094;52.130;5.598;2023-09-12T11:32:46;25.50;1.00
23717;DHT22;22094;52.130;5.598;2023-09-12T11:35:13;26.00;1.00
23717;DHT22;22094;52.130;5.598;2023-09-12T11:37:39;27.40;1.00
23717;DHT22;22094;52.130;5.598;2023-09-12T11:42:40;28.10;1.00
23717;DHT22;22094;52.130;5.598;2023-09-12T11:45:09;26.80;1.00
23717;DHT22;22094;52.130;5.598;2023-09-12T11:47:40;26.40;1.00
23717;DHT22;22094;52.130;5.598;2023-09-12T11:50:06;25.60;1.00
23717;DHT22;22094;52.130;5.598;2023-09-12T11:52:36;25.60;1.00
23717;DHT22;22094;52.130;5.598;2023-09-12T11:55:05;26.80;1.00
23717;DHT22;22094;52.130;5.598;2023-09-12T11:57:31;28.10;1.00
23717;DHT22;22094;52.130;5.598;2023-09-12T12:02:23;25.70;1.00
23717;DHT22;22094;52.130;5.598;2023-09-12T12:04:50;26.40;1.00
23717;DHT22;22094;52.130;5.598;2023-09-12T12:07:16;28.60;99.90
23717;DHT22;22094;52.130;5.598;2023-09-12T12:12:14;25.90;99.90
23717;DHT22;22094;52.130;5.598;2023-09-12T12:14:41;28.40;99.90
23717;DHT22;22094;52.130;5.598;2023-09-12T12:17:10;28.80;99.90
23717;DHT22;22094;52.130;5.598;2023-09-12T12:19:37;28.60;99.90
23717;DHT22;22094;52.130;5.598;2023-09-12T12:22:04;29.20;99.90
23717;DHT22;22094;52.130;5.598;2023-09-12T12:24:44;27.70;99.90
23717;DHT22;22094;52.130;5.598;2023-09-12T12:27:10;29.60;99.90
23717;DHT22;22094;52.130;5.598;2023-09-12T12:29:37;29.10;99.90
23717;DHT22;22094;52.130;5.598;2023-09-12T12:32:06;29.60;99.90
23717;DHT22;22094;52.130;5.598;2023-09-12T12:39:27;29.40;99.90
23717;DHT22;22094;52.130;5.598;2023-09-12T12:41:54;30.50;99.90
23717;DHT22;22094;52.130;5.598;2023-09-12T12:46:54;30.90;99.90
23717;DHT22;22094;52.130;5.598;2023-09-12T12:49:20;30.30;99.90
23717;DHT22;22094;52.130;5.598;2023-09-12T12:51:47;30.60;99.90
23717;DHT22;22094;52.130;5.598;2023-09-12T12:54:13;31.00;99.90
23717;DHT22;22094;52.130;5.598;2023-09-12T12:59:07;30.20;99.90
23717;DHT22;22094;52.130;5.598;2023-09-12T13:01:38;29.60;99.90
23717;DHT22;22094;52.130;5.598;2023-09-12T13:04:10;29.40;99.90
23717;DHT22;22094;52.130;5.598;2023-09-12T13:06:36;30.00;99.90
23717;DHT22;22094;52.130;5.598;2023-09-12T13:09:03;27.90;99.90
23717;DHT22;22094;52.130;5.598;2023-09-12T13:11:33;30.40;99.90
23717;DHT22;22094;52.130;5.598;2023-09-12T13:14:02;28.90;99.90
23717;DHT22;22094;52.130;5.598;2023-09-12T13:19:00;29.30;99.90
23717;DHT22;22094;52.130;5.598;2023-09-12T13:21:25;29.20;99.90
23717;DHT22;22094;52.130;5.598;2023-09-12T13:23:51;29.00;99.90
23717;DHT22;22094;52.130;5.598;2023-09-12T13:26:17;29.60;99.90
23717;DHT22;22094;52.130;5.598;2023-09-12T13:28:42;29.90;99.90
23717;DHT22;22094;52.130;5.598;2023-09-12T13:31:08;28.30;99.90
23717;DHT22;22094;52.130;5.598;2023-09-12T13:33:34;28.50;99.90
23717;DHT22;22094;52.130;5.598;2023-09-12T13:35:59;28.20;99.90
23717;DHT22;22094;52.130;5.598;2023-09-12T13:38:25;28.30;99.90
23717;DHT22;22094;52.130;5.598;2023-09-12T13:40:50;27.70;99.90
23717;DHT22;22094;52.130;5.598;2023-09-12T13:43:16;28.80;99.90
23717;DHT22;22094;52.130;5.598;2023-09-12T13:45:41;30.60;99.90
23717;DHT22;22094;52.130;5.598;2023-09-12T13:50:33;30.30;99.90
23717;DHT22;22094;52.130;5.598;2023-09-12T13:53:01;29.30;99.90
23717;DHT22;22094;52.130;5.598;2023-09-12T13:55:32;28.50;99.90
23717;DHT22;22094;52.130;5.598;2023-09-12T13:57:58;29.60;99.90
23717;DHT22;22094;52.130;5.598;2023-09-12T14:02:50;31.80;99.90
23717;DHT22;22094;52.130;5.598;2023-09-12T14:05:16;30.70;99.90
23717;DHT22;22094;52.130;5.598;2023-09-12T14:07:41;30.20;99.90
23717;DHT22;22094;52.130;5.598;2023-09-12T14:10:07;29.70;99.90
23717;DHT22;22094;52.130;5.598;2023-09-12T14:12:33;29.10;99.90
23717;DHT22;22094;52.130;5.598;2023-09-12T14:14:59;28.70;99.90
23717;DHT22;22094;52.130;5.598;2023-09-12T14:17:24;27.40;99.90
23717;DHT22;22094;52.130;5.598;2023-09-12T14:19:50;26.60;99.90
23717;DHT22;22094;52.130;5.598;2023-09-12T14:22:16;27.60;99.90
23717;DHT22;22094;52.130;5.598;2023-09-12T14:24:41;27.30;99.90
23717;DHT22;22094;52.130;5.598;2023-09-12T14:27:07;26.80;99.90
23717;DHT22;22094;52.130;5.598;2023-09-12T14:29:32;28.40;99.90
23717;DHT22;22094;52.130;5.598;2023-09-12T14:31:58;28.00;99.90
23717;DHT22;22094;52.130;5.598;2023-09-12T14:34:24;26.60;99.90
23717;DHT22;22094;52.130;5.598;2023-09-12T14:36:53;26.70;99.90
23717;DHT22;22094;52.130;5.598;2023-09-12T14:39:20;28.30;99.90
23717;DHT22;22094;52.130;5.598;2023-09-12T14:41:46;27.20;99.90
23717;DHT22;22094;52.130;5.598;2023-09-12T14:44:23;25.90;99.90
23717;DHT22;22094;52.130;5.598;2023-09-12T14:46:49;27.00;99.90
23717;DHT22;22094;52.130;5.598;2023-09-12T14:49:15;25.50;99.90
23717;DHT22;22094;52.130;5.598;2023-09-12T14:51:41;26.30;99.90
23717;DHT22;22094;52.130;5.598;2023-09-12T14:54:07;29.10;99.90
23717;DHT22;22094;52.130;5.598;2023-09-12T14:56:34;27.50;99.90
23717;DHT22;22094;52.130;5.598;2023-09-12T14:59:00;28.40;99.90
23717;DHT22;22094;52.130;5.598;2023-09-12T15:01:26;28.20;99.90
23717;DHT22;22094;52.130;5.598;2023-09-12T15:03:52;29.30;99.90
23717;DHT22;22094;52.130;5.598;2023-09-12T15:06:18;28.20;99.90
23717;DHT22;22094;52.130;5.598;2023-09-12T15:11:10;29.50;99.90
23717;DHT22;22094;52.130;5.598;2023-09-12T15:13:36;29.00;99.90
23717;DHT22;22094;52.130;5.598;2023-09-12T15:16:03;28.30;99.90
23717;DHT22;22094;52.130;5.598;2023-09-12T15:18:29;29.10;99.90
23717;DHT22;22094;52.130;5.598;2023-09-12T15:20:54;28.00;99.90
23717;DHT22;22094;52.130;5.598;2023-09-12T15:23:20;29.60;99.90
23717;DHT22;22094;52.130;5.598;2023-09-12T15:25:48;28.20;99.90
23717;DHT22;22094;52.130;5.598;2023-09-12T15:28:14;27.70;99.90
23717;DHT22;22094;52.130;5.598;2023-09-12T15:30:39;27.60;99.90
23717;DHT22;22094;52.130;5.598;2023-09-12T15:33:05;28.30;99.90
23717;DHT22;22094;52.130;5.598;2023-09-12T15:35:31;29.20;99.90
23717;DHT22;22094;52.130;5.598;2023-09-12T15:37:56;26.60;99.90
23717;DHT22;22094;52.130;5.598;2023-09-12T15:42:48;27.20;99.90
23717;DHT22;22094;52.130;5.598;2023-09-12T15:45:14;27.30;99.90
23717;DHT22;22094;52.130;5.598;2023-09-12T15:47:41;27.60;99.90
23717;DHT22;22094;52.130;5.598;2023-09-12T15:50:07;27.60;99.90
23717;DHT22;22094;52.130;5.598;2023-09-12T15:52:33;27.40;99.90
23717;DHT22;22094;52.130;5.598;2023-09-12T15:55:04;28.30;99.90
23717;DHT22;22094;52.130;5.598;2023-09-12T15:57:29;27.40;99.90
23717;DHT22;22094;52.130;5.598;2023-09-12T15:59:55;27.70;99.90
23717;DHT22;22094;52.130;5.598;2023-09-12T16:02:20;27.90;99.90
23717;DHT22;22094;52.130;5.598;2023-09-12T16:07:12;27.20;99.90
23717;DHT22;22094;52.130;5.598;2023-09-12T16:09:38;28.70;99.90
23717;DHT22;22094;52.130;5.598;2023-09-12T16:12:04;29.00;99.90
23717;DHT22;22094;52.130;5.598;2023-09-12T16:14:29;28.50;99.90
23717;DHT22;22094;52.130;5.598;2023-09-12T16:19:21;28.00;99.90
23717;DHT22;22094;52.130;5.598;2023-09-12T16:21:47;25.80;99.90
23717;DHT22;22094;52.130;5.598;2023-09-12T16:24:12;26.50;99.90
23717;DHT22;22094;52.130;5.598;2023-09-12T16:26:38;25.90;99.90
23717;DHT22;22094;52.130;5.598;2023-09-12T16:29:04;25.50;99.90
23717;DHT22;22094;52.130;5.598;2023-09-12T16:31:29;24.90;99.90
23717;DHT22;22094;52.130;5.598;2023-09-12T16:33:55;24.60;99.90
23717;DHT22;22094;52.130;5.598;2023-09-12T16:36:20;24.50;99.90
23717;DHT22;22094;52.130;5.598;2023-09-12T16:41:12;24.10;99.90